sensor_id;sensor_type;location;lat;lon;timestamp;P1;durP1;ratioP1;P2;durP2;ratioP2
11771;SDS011;12556;55.748;13.194;2023-05-23T00:01:05;6.90;;;4.33;;
11771;SDS011;12556;55.748;13.194;2023-05-23T00:03:32;6.10;;;4.73;;
11771;SDS011;12556;55.748;13.194;2023-05-23T00:06:00;7.57;;;4.50;;
11771;SDS011;12556;55.748;13.194;2023-05-23T00:08:28;6.70;;;4.63;;
11771;SDS011;12556;55.748;13.194;2023-05-23T00:10:57;5.17;;;4.50;;
11771;SDS011;12556;55.748;13.194;2023-05-23T00:13:23;7.20;;;5.00;;
11771;SDS011;12556;55.748;13.194;2023-05-23T00:15:50;6.17;;;4.70;;
11771;SDS011;12556;55.748;13.194;2023-05-23T00:18:18;6.73;;;4.57;;
11771;SDS011;12556;55.748;13.194;2023-05-23T00:20:45;6.87;;;4.57;;
11771;SDS011;12556;55.748;13.194;2023-05-23T00:23:12;6.07;;;4.50;;
11771;SDS011;12556;55.748;13.194;2023-05-23T00:25:43;7.17;;;4.63;;
11771;SDS011;12556;55.748;13.194;2023-05-23T00:28:13;7.23;;;4.73;;
11771;SDS011;12556;55.748;13.194;2023-05-23T00:30:41;6.37;;;4.23;;
11771;SDS011;12556;55.748;13.194;2023-05-23T00:33:08;6.33;;;4.53;;
11771;SDS011;12556;55.748;13.194;2023-05-23T00:35:38;5.93;;;4.13;;
11771;SDS011;12556;55.748;13.194;2023-05-23T00:38:05;6.07;;;4.07;;
11771;SDS011;12556;55.748;13.194;2023-05-23T00:40:32;5.20;;;4.70;;
11771;SDS011;12556;55.748;13.194;2023-05-23T00:42:59;6.97;;;4.60;;
11771;SDS011;12556;55.748;13.194;2023-05-23T00:45:28;5.00;;;4.50;;
11771;SDS011;12556;55.748;13.194;2023-05-23T00:47:55;6.67;;;4.33;;
11771;SDS011;12556;55.748;13.194;2023-05-23T00:50:23;5.60;;;4.27;;
11771;SDS011;12556;55.748;13.194;2023-05-23T00:52:54;7.00;;;4.77;;
11771;SDS011;12556;55.748;13.194;2023-05-23T00:55:22;7.03;;;4.33;;
11771;SDS011;12556;55.748;13.194;2023-05-23T00:57:49;5.57;;;4.20;;
11771;SDS011;12556;55.748;13.194;2023-05-23T01:00:19;7.13;;;4.37;;
11771;SDS011;12556;55.748;13.194;2023-05-23T01:02:48;7.60;;;4.70;;
11771;SDS011;12556;55.748;13.194;2023-05-23T01:05:16;5.57;;;4.13;;
11771;SDS011;12556;55.748;13.194;2023-05-23T01:07:44;5.87;;;4.57;;
11771;SDS011;12556;55.748;13.194;2023-05-23T01:10:11;6.87;;;4.47;;
11771;SDS011;12556;55.748;13.194;2023-05-23T01:12:42;5.97;;;4.93;;
11771;SDS011;12556;55.748;13.194;2023-05-23T01:15:14;6.53;;;4.80;;
11771;SDS011;12556;55.748;13.194;2023-05-23T01:17:43;8.23;;;4.10;;
11771;SDS011;12556;55.748;13.194;2023-05-23T01:20:19;5.43;;;4.83;;
11771;SDS011;12556;55.748;13.194;2023-05-23T01:22:58;4.93;;;4.43;;
11771;SDS011;12556;55.748;13.194;2023-05-23T01:25:44;5.30;;;4.60;;
11771;SDS011;12556;55.748;13.194;2023-05-23T01:28:25;6.27;;;4.43;;
11771;SDS011;12556;55.748;13.194;2023-05-23T01:30:56;7.10;;;4.53;;
11771;SDS011;12556;55.748;13.194;2023-05-23T01:33:24;7.17;;;4.90;;
11771;SDS011;12556;55.748;13.194;2023-05-23T01:35:55;5.07;;;4.40;;
11771;SDS011;12556;55.748;13.194;2023-05-23T01:38:23;4.67;;;3.70;;
11771;SDS011;12556;55.748;13.194;2023-05-23T01:40:50;4.93;;;4.30;;
11771;SDS011;12556;55.748;13.194;2023-05-23T01:43:17;7.03;;;4.37;;
11771;SDS011;12556;55.748;13.194;2023-05-23T01:45:45;5.57;;;4.30;;
11771;SDS011;12556;55.748;13.194;2023-05-23T01:48:13;5.47;;;4.73;;
11771;SDS011;12556;55.748;13.194;2023-05-23T01:50:42;5.10;;;4.10;;
11771;SDS011;12556;55.748;13.194;2023-05-23T01:53:10;6.37;;;4.47;;
11771;SDS011;12556;55.748;13.194;2023-05-23T01:55:39;4.70;;;4.20;;
11771;SDS011;12556;55.748;13.194;2023-05-23T01:58:07;6.23;;;4.60;;
11771;SDS011;12556;55.748;13.194;2023-05-23T02:00:35;4.93;;;3.80;;
11771;SDS011;12556;55.748;13.194;2023-05-23T02:03:03;6.33;;;4.00;;
11771;SDS011;12556;55.748;13.194;2023-05-23T02:05:31;5.47;;;4.50;;
11771;SDS011;12556;55.748;13.194;2023-05-23T02:07:58;6.10;;;4.87;;
11771;SDS011;12556;55.748;13.194;2023-05-23T02:10:25;9.57;;;4.27;;
11771;SDS011;12556;55.748;13.194;2023-05-23T02:12:52;5.47;;;4.07;;
11771;SDS011;12556;55.748;13.194;2023-05-23T02:15:18;7.37;;;4.30;;
11771;SDS011;12556;55.748;13.194;2023-05-23T02:17:45;8.23;;;4.13;;
11771;SDS011;12556;55.748;13.194;2023-05-23T02:20:14;4.70;;;4.20;;
11771;SDS011;12556;55.748;13.194;2023-05-23T02:22:42;6.63;;;4.70;;
11771;SDS011;12556;55.748;13.194;2023-05-23T02:25:10;5.43;;;4.20;;
11771;SDS011;12556;55.748;13.194;2023-05-23T02:27:36;8.27;;;4.47;;
11771;SDS011;12556;55.748;13.194;2023-05-23T02:30:04;7.60;;;4.83;;
11771;SDS011;12556;55.748;13.194;2023-05-23T02:32:32;4.80;;;4.33;;
11771;SDS011;12556;55.748;13.194;2023-05-23T02:34:59;6.37;;;4.43;;
11771;SDS011;12556;55.748;13.194;2023-05-23T02:37:27;6.70;;;4.60;;
11771;SDS011;12556;55.748;13.194;2023-05-23T02:39:54;5.60;;;4.37;;
11771;SDS011;12556;55.748;13.194;2023-05-23T02:42:21;6.47;;;4.37;;
11771;SDS011;12556;55.748;13.194;2023-05-23T02:44:48;5.40;;;4.60;;
11771;SDS011;12556;55.748;13.194;2023-05-23T02:47:15;7.53;;;4.50;;
11771;SDS011;12556;55.748;13.194;2023-05-23T02:49:42;5.43;;;4.97;;
11771;SDS011;12556;55.748;13.194;2023-05-23T02:52:09;6.60;;;4.57;;
11771;SDS011;12556;55.748;13.194;2023-05-23T02:54:37;6.37;;;4.37;;
11771;SDS011;12556;55.748;13.194;2023-05-23T02:57:05;8.47;;;5.00;;
11771;SDS011;12556;55.748;13.194;2023-05-23T02:59:32;7.00;;;4.63;;
11771;SDS011;12556;55.748;13.194;2023-05-23T03:01:59;4.60;;;3.77;;
11771;SDS011;12556;55.748;13.194;2023-05-23T03:04:26;7.27;;;4.60;;
11771;SDS011;12556;55.748;13.194;2023-05-23T03:06:53;7.20;;;4.53;;
11771;SDS011;12556;55.748;13.194;2023-05-23T03:09:20;5.27;;;3.83;;
11771;SDS011;12556;55.748;13.194;2023-05-23T03:11:49;6.13;;;4.23;;
11771;SDS011;12556;55.748;13.194;2023-05-23T03:14:16;5.20;;;4.20;;
11771;SDS011;12556;55.748;13.194;2023-05-23T03:16:43;5.73;;;4.47;;
11771;SDS011;12556;55.748;13.194;2023-05-23T03:19:10;6.77;;;4.40;;
11771;SDS011;12556;55.748;13.194;2023-05-23T03:21:37;6.60;;;4.60;;
11771;SDS011;12556;55.748;13.194;2023-05-23T03:24:07;6.60;;;4.70;;
11771;SDS011;12556;55.748;13.194;2023-05-23T03:26:34;9.60;;;4.60;;
11771;SDS011;12556;55.748;13.194;2023-05-23T03:29:02;6.80;;;4.83;;
11771;SDS011;12556;55.748;13.194;2023-05-23T03:31:30;6.77;;;4.80;;
11771;SDS011;12556;55.748;13.194;2023-05-23T03:33:57;6.27;;;4.67;;
11771;SDS011;12556;55.748;13.194;2023-05-23T03:36:24;5.63;;;4.60;;
11771;SDS011;12556;55.748;13.194;2023-05-23T03:38:52;5.73;;;4.53;;
11771;SDS011;12556;55.748;13.194;2023-05-23T03:41:19;4.33;;;3.77;;
11771;SDS011;12556;55.748;13.194;2023-05-23T03:43:46;6.87;;;4.67;;
11771;SDS011;12556;55.748;13.194;2023-05-23T03:46:15;7.20;;;4.53;;
11771;SDS011;12556;55.748;13.194;2023-05-23T03:48:42;6.57;;;3.93;;
11771;SDS011;12556;55.748;13.194;2023-05-23T03:51:09;4.47;;;4.07;;
11771;SDS011;12556;55.748;13.194;2023-05-23T03:53:38;6.00;;;3.87;;
11771;SDS011;12556;55.748;13.194;2023-05-23T03:56:06;5.83;;;4.67;;
11771;SDS011;12556;55.748;13.194;2023-05-23T03:58:33;7.47;;;4.43;;
11771;SDS011;12556;55.748;13.194;2023-05-23T04:01:00;6.77;;;4.27;;
11771;SDS011;12556;55.748;13.194;2023-05-23T04:03:28;4.17;;;3.77;;
11771;SDS011;12556;55.748;13.194;2023-05-23T04:05:57;7.67;;;4.90;;
11771;SDS011;12556;55.748;13.194;2023-05-23T04:11:11;7.47;;;5.03;;
11771;SDS011;12556;55.748;13.194;2023-05-23T04:13:38;4.83;;;4.40;;
11771;SDS011;12556;55.748;13.194;2023-05-23T04:16:06;7.30;;;4.90;;
11771;SDS011;12556;55.748;13.194;2023-05-23T04:18:35;5.70;;;4.17;;
11771;SDS011;12556;55.748;13.194;2023-05-23T04:21:03;6.23;;;4.40;;
11771;SDS011;12556;55.748;13.194;2023-05-23T04:23:30;6.57;;;4.50;;
11771;SDS011;12556;55.748;13.194;2023-05-23T04:25:57;7.50;;;4.30;;
11771;SDS011;12556;55.748;13.194;2023-05-23T04:28:24;5.30;;;3.77;;
11771;SDS011;12556;55.748;13.194;2023-05-23T04:30:51;5.80;;;4.33;;
11771;SDS011;12556;55.748;13.194;2023-05-23T04:33:18;5.17;;;4.47;;
11771;SDS011;12556;55.748;13.194;2023-05-23T04:35:47;7.90;;;4.20;;
11771;SDS011;12556;55.748;13.194;2023-05-23T04:38:15;6.50;;;3.97;;
11771;SDS011;12556;55.748;13.194;2023-05-23T04:40:42;5.30;;;4.30;;
11771;SDS011;12556;55.748;13.194;2023-05-23T04:43:09;8.50;;;4.00;;
11771;SDS011;12556;55.748;13.194;2023-05-23T04:45:49;6.33;;;3.83;;
11771;SDS011;12556;55.748;13.194;2023-05-23T04:48:18;4.53;;;3.70;;
11771;SDS011;12556;55.748;13.194;2023-05-23T04:50:47;4.10;;;3.27;;
11771;SDS011;12556;55.748;13.194;2023-05-23T04:53:15;4.13;;;3.73;;
11771;SDS011;12556;55.748;13.194;2023-05-23T04:55:42;4.30;;;3.30;;
11771;SDS011;12556;55.748;13.194;2023-05-23T04:58:09;4.20;;;3.57;;
11771;SDS011;12556;55.748;13.194;2023-05-23T05:00:37;7.63;;;3.67;;
11771;SDS011;12556;55.748;13.194;2023-05-23T05:03:12;6.80;;;3.50;;
11771;SDS011;12556;55.748;13.194;2023-05-23T05:05:39;4.07;;;3.33;;
11771;SDS011;12556;55.748;13.194;2023-05-23T05:08:07;4.27;;;3.43;;
11771;SDS011;12556;55.748;13.194;2023-05-23T05:10:35;5.73;;;3.50;;
11771;SDS011;12556;55.748;13.194;2023-05-23T05:13:03;5.47;;;3.60;;
11771;SDS011;12556;55.748;13.194;2023-05-23T05:15:33;4.77;;;3.30;;
11771;SDS011;12556;55.748;13.194;2023-05-23T05:18:00;5.03;;;3.83;;
11771;SDS011;12556;55.748;13.194;2023-05-23T05:20:29;4.27;;;3.47;;
11771;SDS011;12556;55.748;13.194;2023-05-23T05:22:56;9.07;;;3.57;;
11771;SDS011;12556;55.748;13.194;2023-05-23T05:25:25;4.77;;;3.23;;
11771;SDS011;12556;55.748;13.194;2023-05-23T05:27:55;5.73;;;3.60;;
11771;SDS011;12556;55.748;13.194;2023-05-23T05:30:23;7.97;;;3.50;;
11771;SDS011;12556;55.748;13.194;2023-05-23T05:32:50;8.07;;;3.77;;
11771;SDS011;12556;55.748;13.194;2023-05-23T05:35:17;4.87;;;3.27;;
11771;SDS011;12556;55.748;13.194;2023-05-23T05:37:45;5.63;;;3.27;;
11771;SDS011;12556;55.748;13.194;2023-05-23T05:40:12;5.13;;;3.30;;
11771;SDS011;12556;55.748;13.194;2023-05-23T05:42:40;6.57;;;3.10;;
11771;SDS011;12556;55.748;13.194;2023-05-23T05:45:08;4.67;;;3.87;;
11771;SDS011;12556;55.748;13.194;2023-05-23T05:47:36;3.93;;;3.53;;
11771;SDS011;12556;55.748;13.194;2023-05-23T05:50:03;5.73;;;4.13;;
11771;SDS011;12556;55.748;13.194;2023-05-23T05:52:30;4.37;;;3.07;;
11771;SDS011;12556;55.748;13.194;2023-05-23T05:54:58;5.33;;;3.50;;
11771;SDS011;12556;55.748;13.194;2023-05-23T05:57:25;4.33;;;3.47;;
11771;SDS011;12556;55.748;13.194;2023-05-23T05:59:54;5.13;;;3.63;;
11771;SDS011;12556;55.748;13.194;2023-05-23T06:02:20;8.53;;;4.30;;
11771;SDS011;12556;55.748;13.194;2023-05-23T06:04:47;5.47;;;3.57;;
11771;SDS011;12556;55.748;13.194;2023-05-23T06:07:14;7.17;;;3.90;;
11771;SDS011;12556;55.748;13.194;2023-05-23T06:12:16;7.60;;;3.87;;
11771;SDS011;12556;55.748;13.194;2023-05-23T06:14:43;6.40;;;3.43;;
11771;SDS011;12556;55.748;13.194;2023-05-23T06:17:15;4.17;;;3.40;;
11771;SDS011;12556;55.748;13.194;2023-05-23T06:19:42;9.50;;;3.87;;
11771;SDS011;12556;55.748;13.194;2023-05-23T06:22:09;7.03;;;3.87;;
11771;SDS011;12556;55.748;13.194;2023-05-23T06:24:36;5.20;;;3.70;;
11771;SDS011;12556;55.748;13.194;2023-05-23T06:27:03;4.30;;;3.90;;
11771;SDS011;12556;55.748;13.194;2023-05-23T06:29:30;5.40;;;3.63;;
11771;SDS011;12556;55.748;13.194;2023-05-23T06:32:00;6.27;;;3.63;;
11771;SDS011;12556;55.748;13.194;2023-05-23T06:34:28;4.27;;;3.10;;
11771;SDS011;12556;55.748;13.194;2023-05-23T06:36:55;5.23;;;3.67;;
11771;SDS011;12556;55.748;13.194;2023-05-23T06:39:22;5.70;;;3.70;;
11771;SDS011;12556;55.748;13.194;2023-05-23T06:41:49;7.73;;;4.03;;
11771;SDS011;12556;55.748;13.194;2023-05-23T06:44:16;5.83;;;3.97;;
11771;SDS011;12556;55.748;13.194;2023-05-23T06:46:44;5.90;;;4.00;;
11771;SDS011;12556;55.748;13.194;2023-05-23T06:49:11;6.93;;;3.30;;
11771;SDS011;12556;55.748;13.194;2023-05-23T06:51:39;5.70;;;3.90;;
11771;SDS011;12556;55.748;13.194;2023-05-23T06:54:07;6.50;;;3.90;;
11771;SDS011;12556;55.748;13.194;2023-05-23T06:56:33;4.50;;;4.10;;
11771;SDS011;12556;55.748;13.194;2023-05-23T06:59:00;6.33;;;3.93;;
11771;SDS011;12556;55.748;13.194;2023-05-23T07:01:27;6.50;;;3.90;;
11771;SDS011;12556;55.748;13.194;2023-05-23T07:03:54;9.47;;;3.93;;
11771;SDS011;12556;55.748;13.194;2023-05-23T07:06:21;9.27;;;3.77;;
11771;SDS011;12556;55.748;13.194;2023-05-23T07:08:50;4.73;;;3.60;;
11771;SDS011;12556;55.748;13.194;2023-05-23T07:11:17;5.83;;;3.67;;
11771;SDS011;12556;55.748;13.194;2023-05-23T07:13:45;5.50;;;3.90;;
11771;SDS011;12556;55.748;13.194;2023-05-23T07:16:21;4.93;;;4.07;;
11771;SDS011;12556;55.748;13.194;2023-05-23T07:18:54;4.97;;;4.10;;
11771;SDS011;12556;55.748;13.194;2023-05-23T07:23:54;4.83;;;3.37;;
11771;SDS011;12556;55.748;13.194;2023-05-23T07:26:21;5.23;;;3.50;;
11771;SDS011;12556;55.748;13.194;2023-05-23T07:28:48;8.47;;;4.00;;
11771;SDS011;12556;55.748;13.194;2023-05-23T07:31:15;5.83;;;3.97;;
11771;SDS011;12556;55.748;13.194;2023-05-23T07:33:42;5.40;;;3.73;;
11771;SDS011;12556;55.748;13.194;2023-05-23T07:36:11;4.93;;;3.67;;
11771;SDS011;12556;55.748;13.194;2023-05-23T07:38:40;5.97;;;4.13;;
11771;SDS011;12556;55.748;13.194;2023-05-23T07:41:15;5.10;;;3.93;;
11771;SDS011;12556;55.748;13.194;2023-05-23T07:43:42;6.23;;;4.00;;
11771;SDS011;12556;55.748;13.194;2023-05-23T07:46:09;7.70;;;4.33;;
11771;SDS011;12556;55.748;13.194;2023-05-23T07:48:36;6.37;;;3.73;;
11771;SDS011;12556;55.748;13.194;2023-05-23T07:51:03;5.83;;;4.27;;
11771;SDS011;12556;55.748;13.194;2023-05-23T07:53:30;6.47;;;4.47;;
11771;SDS011;12556;55.748;13.194;2023-05-23T07:55:57;7.63;;;5.07;;
11771;SDS011;12556;55.748;13.194;2023-05-23T07:58:25;5.57;;;3.97;;
11771;SDS011;12556;55.748;13.194;2023-05-23T08:00:52;5.63;;;4.03;;
11771;SDS011;12556;55.748;13.194;2023-05-23T08:03:19;4.67;;;3.90;;
11771;SDS011;12556;55.748;13.194;2023-05-23T08:05:46;5.83;;;3.93;;
11771;SDS011;12556;55.748;13.194;2023-05-23T08:08:13;7.30;;;4.13;;
11771;SDS011;12556;55.748;13.194;2023-05-23T08:10:41;6.47;;;3.90;;
11771;SDS011;12556;55.748;13.194;2023-05-23T08:13:17;6.97;;;4.03;;
11771;SDS011;12556;55.748;13.194;2023-05-23T08:18:23;4.50;;;3.97;;
11771;SDS011;12556;55.748;13.194;2023-05-23T08:20:50;6.47;;;4.07;;
11771;SDS011;12556;55.748;13.194;2023-05-23T08:23:17;8.27;;;4.40;;
11771;SDS011;12556;55.748;13.194;2023-05-23T08:25:44;9.07;;;4.33;;
11771;SDS011;12556;55.748;13.194;2023-05-23T08:28:11;11.47;;;4.70;;
11771;SDS011;12556;55.748;13.194;2023-05-23T08:30:38;6.43;;;4.10;;
11771;SDS011;12556;55.748;13.194;2023-05-23T08:33:07;6.53;;;3.97;;
11771;SDS011;12556;55.748;13.194;2023-05-23T08:35:34;6.17;;;4.23;;
11771;SDS011;12556;55.748;13.194;2023-05-23T08:38:03;6.77;;;4.30;;
11771;SDS011;12556;55.748;13.194;2023-05-23T08:40:32;5.07;;;3.80;;
11771;SDS011;12556;55.748;13.194;2023-05-23T08:43:01;8.23;;;3.77;;
11771;SDS011;12556;55.748;13.194;2023-05-23T08:45:28;7.53;;;4.60;;
11771;SDS011;12556;55.748;13.194;2023-05-23T08:47:56;5.67;;;3.90;;
11771;SDS011;12556;55.748;13.194;2023-05-23T08:50:29;5.87;;;3.93;;
11771;SDS011;12556;55.748;13.194;2023-05-23T08:52:56;5.83;;;4.30;;
11771;SDS011;12556;55.748;13.194;2023-05-23T08:55:24;10.63;;;4.40;;
11771;SDS011;12556;55.748;13.194;2023-05-23T08:57:52;12.23;;;4.13;;
11771;SDS011;12556;55.748;13.194;2023-05-23T09:00:20;7.30;;;4.13;;
11771;SDS011;12556;55.748;13.194;2023-05-23T09:02:47;9.07;;;4.07;;
11771;SDS011;12556;55.748;13.194;2023-05-23T09:05:15;8.57;;;4.10;;
11771;SDS011;12556;55.748;13.194;2023-05-23T09:07:44;4.93;;;4.07;;
11771;SDS011;12556;55.748;13.194;2023-05-23T09:10:13;9.17;;;3.77;;
11771;SDS011;12556;55.748;13.194;2023-05-23T09:12:49;8.67;;;4.10;;
11771;SDS011;12556;55.748;13.194;2023-05-23T09:15:29;5.57;;;3.97;;
11771;SDS011;12556;55.748;13.194;2023-05-23T09:18:02;5.53;;;4.17;;
11771;SDS011;12556;55.748;13.194;2023-05-23T09:20:30;7.33;;;4.03;;
11771;SDS011;12556;55.748;13.194;2023-05-23T09:22:58;8.30;;;4.47;;
11771;SDS011;12556;55.748;13.194;2023-05-23T09:25:25;6.13;;;4.20;;
11771;SDS011;12556;55.748;13.194;2023-05-23T09:28:02;4.67;;;3.80;;
11771;SDS011;12556;55.748;13.194;2023-05-23T09:30:39;5.27;;;3.80;;
11771;SDS011;12556;55.748;13.194;2023-05-23T09:33:06;10.70;;;4.30;;
11771;SDS011;12556;55.748;13.194;2023-05-23T09:35:33;8.30;;;5.13;;
11771;SDS011;12556;55.748;13.194;2023-05-23T09:38:02;5.77;;;4.23;;
11771;SDS011;12556;55.748;13.194;2023-05-23T09:40:29;6.23;;;4.27;;
11771;SDS011;12556;55.748;13.194;2023-05-23T09:43:00;9.37;;;4.43;;
11771;SDS011;12556;55.748;13.194;2023-05-23T09:45:29;5.73;;;4.70;;
11771;SDS011;12556;55.748;13.194;2023-05-23T09:47:56;7.43;;;4.90;;
11771;SDS011;12556;55.748;13.194;2023-05-23T09:50:25;9.30;;;4.60;;
11771;SDS011;12556;55.748;13.194;2023-05-23T09:52:56;6.87;;;5.27;;
11771;SDS011;12556;55.748;13.194;2023-05-23T09:55:24;7.03;;;4.93;;
11771;SDS011;12556;55.748;13.194;2023-05-23T09:57:52;9.57;;;4.93;;
11771;SDS011;12556;55.748;13.194;2023-05-23T10:00:21;6.10;;;4.43;;
11771;SDS011;12556;55.748;13.194;2023-05-23T10:05:30;5.13;;;4.63;;
11771;SDS011;12556;55.748;13.194;2023-05-23T10:08:06;8.07;;;4.70;;
11771;SDS011;12556;55.748;13.194;2023-05-23T10:16:20;10.07;;;4.77;;
11771;SDS011;12556;55.748;13.194;2023-05-23T10:19:11;7.97;;;5.03;;
11771;SDS011;12556;55.748;13.194;2023-05-23T10:21:43;7.73;;;5.33;;
11771;SDS011;12556;55.748;13.194;2023-05-23T10:24:15;6.03;;;4.77;;
11771;SDS011;12556;55.748;13.194;2023-05-23T10:26:44;6.23;;;5.03;;
11771;SDS011;12556;55.748;13.194;2023-05-23T10:29:13;7.30;;;5.17;;
11771;SDS011;12556;55.748;13.194;2023-05-23T10:31:40;6.23;;;4.57;;
11771;SDS011;12556;55.748;13.194;2023-05-23T10:34:08;7.87;;;4.87;;
11771;SDS011;12556;55.748;13.194;2023-05-23T10:36:42;9.17;;;5.27;;
11771;SDS011;12556;55.748;13.194;2023-05-23T10:39:26;7.17;;;5.17;;
11771;SDS011;12556;55.748;13.194;2023-05-23T10:42:10;9.67;;;5.17;;
11771;SDS011;12556;55.748;13.194;2023-05-23T10:44:42;5.30;;;4.67;;
11771;SDS011;12556;55.748;13.194;2023-05-23T10:47:09;7.97;;;5.40;;
11771;SDS011;12556;55.748;13.194;2023-05-23T10:49:37;9.20;;;5.50;;
11771;SDS011;12556;55.748;13.194;2023-05-23T10:52:05;9.47;;;5.53;;
11771;SDS011;12556;55.748;13.194;2023-05-23T10:54:35;7.70;;;5.67;;
11771;SDS011;12556;55.748;13.194;2023-05-23T10:57:07;8.90;;;5.43;;
11771;SDS011;12556;55.748;13.194;2023-05-23T10:59:36;8.00;;;4.67;;
11771;SDS011;12556;55.748;13.194;2023-05-23T11:02:08;7.17;;;4.50;;
11771;SDS011;12556;55.748;13.194;2023-05-23T11:04:39;14.03;;;5.47;;
11771;SDS011;12556;55.748;13.194;2023-05-23T11:07:27;5.83;;;5.10;;
11771;SDS011;12556;55.748;13.194;2023-05-23T11:10:07;9.37;;;5.17;;
11771;SDS011;12556;55.748;13.194;2023-05-23T11:12:35;5.83;;;4.90;;
11771;SDS011;12556;55.748;13.194;2023-05-23T11:17:50;6.07;;;4.97;;
11771;SDS011;12556;55.748;13.194;2023-05-23T11:20:19;5.87;;;5.23;;
11771;SDS011;12556;55.748;13.194;2023-05-23T11:25:40;6.30;;;5.80;;
11771;SDS011;12556;55.748;13.194;2023-05-23T11:28:08;6.30;;;5.67;;
11771;SDS011;12556;55.748;13.194;2023-05-23T11:30:35;6.20;;;5.60;;
11771;SDS011;12556;55.748;13.194;2023-05-23T11:33:08;5.90;;;4.80;;
11771;SDS011;12556;55.748;13.194;2023-05-23T11:35:38;7.63;;;5.57;;
11771;SDS011;12556;55.748;13.194;2023-05-23T11:38:05;8.60;;;5.33;;
11771;SDS011;12556;55.748;13.194;2023-05-23T11:40:36;8.53;;;5.63;;
11771;SDS011;12556;55.748;13.194;2023-05-23T11:43:06;8.67;;;5.53;;
11771;SDS011;12556;55.748;13.194;2023-05-23T11:45:34;7.93;;;5.33;;
11771;SDS011;12556;55.748;13.194;2023-05-23T11:48:07;6.17;;;5.47;;
11771;SDS011;12556;55.748;13.194;2023-05-23T11:50:42;6.80;;;5.17;;
11771;SDS011;12556;55.748;13.194;2023-05-23T11:53:10;6.43;;;5.40;;
11771;SDS011;12556;55.748;13.194;2023-05-23T11:55:38;10.43;;;5.37;;
11771;SDS011;12556;55.748;13.194;2023-05-23T11:58:06;9.07;;;5.83;;
11771;SDS011;12556;55.748;13.194;2023-05-23T12:00:34;6.43;;;5.40;;
11771;SDS011;12556;55.748;13.194;2023-05-23T12:03:10;8.10;;;5.97;;
11771;SDS011;12556;55.748;13.194;2023-05-23T12:05:37;6.40;;;5.00;;
11771;SDS011;12556;55.748;13.194;2023-05-23T12:08:11;6.83;;;5.27;;
11771;SDS011;12556;55.748;13.194;2023-05-23T12:10:48;5.93;;;5.33;;
11771;SDS011;12556;55.748;13.194;2023-05-23T12:13:16;8.63;;;5.10;;
11771;SDS011;12556;55.748;13.194;2023-05-23T12:15:43;8.13;;;5.40;;
11771;SDS011;12556;55.748;13.194;2023-05-23T12:18:12;6.53;;;4.50;;
11771;SDS011;12556;55.748;13.194;2023-05-23T12:20:50;6.33;;;5.20;;
11771;SDS011;12556;55.748;13.194;2023-05-23T12:23:17;5.80;;;4.70;;
11771;SDS011;12556;55.748;13.194;2023-05-23T12:25:48;5.43;;;4.47;;
11771;SDS011;12556;55.748;13.194;2023-05-23T12:31:09;6.87;;;4.97;;
11771;SDS011;12556;55.748;13.194;2023-05-23T12:33:38;10.57;;;5.70;;
11771;SDS011;12556;55.748;13.194;2023-05-23T12:36:07;7.07;;;5.63;;
11771;SDS011;12556;55.748;13.194;2023-05-23T12:38:35;8.77;;;5.33;;
11771;SDS011;12556;55.748;13.194;2023-05-23T12:41:08;8.23;;;5.37;;
11771;SDS011;12556;55.748;13.194;2023-05-23T12:43:36;6.17;;;5.20;;
11771;SDS011;12556;55.748;13.194;2023-05-23T12:46:04;6.93;;;4.80;;
11771;SDS011;12556;55.748;13.194;2023-05-23T12:48:31;6.00;;;5.30;;
11771;SDS011;12556;55.748;13.194;2023-05-23T12:51:00;8.23;;;5.83;;
11771;SDS011;12556;55.748;13.194;2023-05-23T12:53:27;8.03;;;4.90;;
11771;SDS011;12556;55.748;13.194;2023-05-23T12:55:54;7.53;;;5.30;;
11771;SDS011;12556;55.748;13.194;2023-05-23T12:58:21;7.40;;;5.53;;
11771;SDS011;12556;55.748;13.194;2023-05-23T13:00:49;6.77;;;5.57;;
11771;SDS011;12556;55.748;13.194;2023-05-23T13:03:16;8.60;;;5.27;;
11771;SDS011;12556;55.748;13.194;2023-05-23T13:05:43;7.20;;;5.33;;
11771;SDS011;12556;55.748;13.194;2023-05-23T13:08:13;5.47;;;4.73;;
11771;SDS011;12556;55.748;13.194;2023-05-23T13:10:42;6.87;;;5.57;;
11771;SDS011;12556;55.748;13.194;2023-05-23T13:13:09;6.43;;;5.23;;
11771;SDS011;12556;55.748;13.194;2023-05-23T13:15:49;9.63;;;5.50;;
11771;SDS011;12556;55.748;13.194;2023-05-23T13:18:16;8.00;;;5.40;;
11771;SDS011;12556;55.748;13.194;2023-05-23T13:20:43;7.60;;;5.30;;
11771;SDS011;12556;55.748;13.194;2023-05-23T13:23:10;9.93;;;5.10;;
11771;SDS011;12556;55.748;13.194;2023-05-23T13:25:38;13.90;;;5.50;;
11771;SDS011;12556;55.748;13.194;2023-05-23T13:28:05;7.03;;;4.53;;
11771;SDS011;12556;55.748;13.194;2023-05-23T13:30:32;5.97;;;5.07;;
11771;SDS011;12556;55.748;13.194;2023-05-23T13:32:59;5.00;;;4.50;;
11771;SDS011;12556;55.748;13.194;2023-05-23T13:35:26;7.60;;;4.97;;
11771;SDS011;12556;55.748;13.194;2023-05-23T13:37:53;7.37;;;4.83;;
11771;SDS011;12556;55.748;13.194;2023-05-23T13:40:21;13.13;;;4.47;;
11771;SDS011;12556;55.748;13.194;2023-05-23T13:42:50;7.83;;;4.73;;
11771;SDS011;12556;55.748;13.194;2023-05-23T13:45:24;7.97;;;5.07;;
11771;SDS011;12556;55.748;13.194;2023-05-23T13:47:51;8.37;;;5.23;;
11771;SDS011;12556;55.748;13.194;2023-05-23T13:50:18;8.30;;;5.27;;
11771;SDS011;12556;55.748;13.194;2023-05-23T13:52:45;6.83;;;5.27;;
11771;SDS011;12556;55.748;13.194;2023-05-23T13:55:13;8.83;;;5.20;;
11771;SDS011;12556;55.748;13.194;2023-05-23T13:57:40;6.67;;;5.20;;
11771;SDS011;12556;55.748;13.194;2023-05-23T14:00:09;5.70;;;5.20;;
11771;SDS011;12556;55.748;13.194;2023-05-23T14:02:37;7.73;;;5.50;;
11771;SDS011;12556;55.748;13.194;2023-05-23T14:05:05;6.27;;;5.67;;
11771;SDS011;12556;55.748;13.194;2023-05-23T14:07:33;6.37;;;5.03;;
11771;SDS011;12556;55.748;13.194;2023-05-23T14:10:00;8.00;;;5.27;;
11771;SDS011;12556;55.748;13.194;2023-05-23T14:12:29;7.70;;;5.50;;
11771;SDS011;12556;55.748;13.194;2023-05-23T14:17:31;6.87;;;4.97;;
11771;SDS011;12556;55.748;13.194;2023-05-23T14:19:57;7.20;;;5.17;;
11771;SDS011;12556;55.748;13.194;2023-05-23T14:22:24;8.80;;;5.57;;
11771;SDS011;12556;55.748;13.194;2023-05-23T14:24:51;11.10;;;5.60;;
11771;SDS011;12556;55.748;13.194;2023-05-23T14:27:18;9.33;;;5.73;;
11771;SDS011;12556;55.748;13.194;2023-05-23T14:29:45;6.17;;;4.80;;
11771;SDS011;12556;55.748;13.194;2023-05-23T14:32:13;6.87;;;5.23;;
11771;SDS011;12556;55.748;13.194;2023-05-23T14:34:42;7.33;;;5.50;;
11771;SDS011;12556;55.748;13.194;2023-05-23T14:37:09;7.37;;;5.20;;
11771;SDS011;12556;55.748;13.194;2023-05-23T14:39:36;6.60;;;5.10;;
11771;SDS011;12556;55.748;13.194;2023-05-23T14:42:03;8.60;;;6.03;;
11771;SDS011;12556;55.748;13.194;2023-05-23T14:44:30;6.67;;;5.50;;
11771;SDS011;12556;55.748;13.194;2023-05-23T14:46:57;7.97;;;5.30;;
11771;SDS011;12556;55.748;13.194;2023-05-23T14:49:24;5.87;;;5.33;;
11771;SDS011;12556;55.748;13.194;2023-05-23T14:51:53;7.60;;;5.27;;
11771;SDS011;12556;55.748;13.194;2023-05-23T14:54:20;11.43;;;6.03;;
11771;SDS011;12556;55.748;13.194;2023-05-23T14:56:47;9.10;;;5.47;;
11771;SDS011;12556;55.748;13.194;2023-05-23T14:59:15;7.83;;;6.00;;
11771;SDS011;12556;55.748;13.194;2023-05-23T15:01:42;7.27;;;5.50;;
11771;SDS011;12556;55.748;13.194;2023-05-23T15:04:09;6.20;;;5.30;;
11771;SDS011;12556;55.748;13.194;2023-05-23T15:06:37;7.20;;;5.80;;
11771;SDS011;12556;55.748;13.194;2023-05-23T15:09:05;8.33;;;5.53;;
11771;SDS011;12556;55.748;13.194;2023-05-23T15:11:34;9.67;;;6.27;;